Time;durP1;ratioP1;P1;durP2;ratioP2;P2;SDS_P1;SDS_P2;PMS_P1;PMS_P2;Temp;Humidity;BMP_temperature;BMP_pressure;BME280_temperature;BME280_humidity;BME280_pressure;Samples;Min_cycle;Max_cycle;Signal;HPM_P1;HPM_P2
2023/11/13 00:02:26;;;;;;;5.85;2.13;;;9.20;99.80;;;;;;5097225;28;20540;-74
2023/11/13 00:04:55;;;;;;;4.65;1.77;;;9.30;99.50;;;;;;5096634;28;20225;-74
2023/11/13 00:07:22;;;;;;;4.65;1.80;;;9.30;99.30;;;;;;5097090;28;20282;-74
2023/11/13 00:09:50;;;;;;;4.05;1.90;;;9.40;99.10;;;;;;5096985;28;20244;-74
2023/11/13 00:12:18;;;;;;;8.63;1.85;;;9.50;98.90;;;;;;5096536;28;20213;-74
2023/11/13 00:14:45;;;;;;;7.05;2.88;;;9.50;98.80;;;;;;5097027;28;20586;-74
2023/11/13 00:17:13;;;;;;;5.95;1.10;;;9.60;98.40;;;;;;5096615;28;20194;-74
2023/11/13 00:19:43;;;;;;;4.20;1.23;;;9.70;98.10;;;;;;5096751;28;20231;-74
2023/11/13 00:22:13;;;;;;;8.45;1.90;;;9.70;97.80;;;;;;5096951;28;20178;-74
2023/11/13 00:24:41;;;;;;;3.70;1.38;;;9.80;97.70;;;;;;5096364;28;20228;-74
2023/11/13 00:27:08;;;;;;;3.85;1.35;;;9.80;97.70;;;;;;5096642;28;20197;-73
2023/11/13 00:29:36;;;;;;;4.40;2.17;;;9.80;97.70;;;;;;5096259;28;20636;-74
2023/11/13 00:32:04;;;;;;;2.45;1.00;;;9.90;96.90;;;;;;5096188;28;20213;-74
2023/11/13 00:34:32;;;;;;;2.35;1.00;;;9.90;96.50;;;;;;5096111;28;20189;-74
2023/11/13 00:36:59;;;;;;;2.35;0.90;;;10.00;95.80;;;;;;5096447;28;20200;-74
2023/11/13 00:39:26;;;;;;;3.60;1.63;;;10.00;95.40;;;;;;5096491;28;20280;-74
2023/11/13 00:41:53;;;;;;;3.75;1.20;;;10.00;95.40;;;;;;5096467;28;20194;-73
2023/11/13 00:44:20;;;;;;;2.55;0.90;;;10.00;95.60;;;;;;5096437;28;20212;-73
2023/11/13 00:46:49;;;;;;;2.88;0.90;;;10.00;95.80;;;;;;5095981;28;20635;-74
2023/11/13 00:49:18;;;;;;;7.03;1.23;;;10.00;96.10;;;;;;5096190;28;20535;-73
2023/11/13 00:51:53;;;;;;;2.33;0.98;;;10.00;96.20;;;;;;5096394;28;20213;-73
2023/11/13 00:54:20;;;;;;;3.30;1.00;;;10.00;96.50;;;;;;5096474;28;20196;-73
2023/11/13 00:56:47;;;;;;;3.47;1.67;;;10.00;96.70;;;;;;5096100;28;20189;-73
2023/11/13 00:59:14;;;;;;;3.85;1.10;;;10.00;96.90;;;;;;5095763;28;20193;-73
2023/11/13 01:01:47;;;;;;;3.22;1.25;;;10.00;97.30;;;;;;5095719;28;20227;-73
2023/11/13 01:04:16;;;;;;;3.13;0.90;;;10.00;97.30;;;;;;5095628;28;20223;-73
2023/11/13 01:06:43;;;;;;;2.55;1.20;;;10.00;97.60;;;;;;5095577;28;20233;-73
2023/11/13 01:09:11;;;;;;;1.90;0.70;;;10.00;97.80;;;;;;5095623;28;20254;-74
2023/11/13 01:11:42;;;;;;;3.55;1.38;;;10.00;97.90;;;;;;5095804;28;20194;-74
2023/11/13 01:14:09;;;;;;;2.60;0.75;;;10.00;98.10;;;;;;5095916;28;20532;-74
2023/11/13 01:16:37;;;;;;;2.97;1.10;;;10.00;97.90;;;;;;5095440;28;20232;-73
2023/11/13 01:19:05;;;;;;;1.98;0.90;;;10.00;97.90;;;;;;5095288;28;20666;-74
2023/11/13 01:21:33;;;;;;;2.20;1.00;;;10.00;97.90;;;;;;5095127;28;20625;-74
2023/11/13 01:24:02;;;;;;;2.25;0.98;;;10.00;98.20;;;;;;5095587;28;20212;-74
2023/11/13 01:26:31;;;;;;;3.70;1.20;;;10.00;98.60;;;;;;5095226;28;20225;-73
2023/11/13 01:29:01;;;;;;;2.75;0.85;;;10.00;98.90;;;;;;5095483;28;20271;-73
2023/11/13 01:31:31;;;;;;;4.88;1.40;;;10.10;98.80;;;;;;5095394;28;20189;-73
2023/11/13 01:33:58;;;;;;;2.33;0.90;;;10.10;98.80;;;;;;5095527;28;20590;-74
2023/11/13 01:36:26;;;;;;;2.03;1.00;;;10.10;98.90;;;;;;5095634;28;20201;-73
2023/11/13 01:38:54;;;;;;;2.80;0.95;;;10.00;99.00;;;;;;5095288;28;20190;-74
2023/11/13 01:41:21;;;;;;;3.03;1.52;;;10.00;99.30;;;;;;5095082;28;20597;-73
2023/11/13 01:43:50;;;;;;;4.53;1.13;;;9.90;99.90;;;;;;5094906;28;20190;-73
2023/11/13 01:46:20;;;;;;;1.92;0.90;;;9.90;99.90;;;;;;5094839;28;20225;-73
2023/11/13 01:48:47;;;;;;;2.42;1.10;;;10.00;99.90;;;;;;5094716;28;20709;-73
2023/11/13 01:51:14;;;;;;;4.05;0.95;;;10.00;99.90;;;;;;5094763;28;20189;-73
2023/11/13 01:53:43;;;;;;;3.17;1.10;;;9.90;99.90;;;;;;5094936;28;20214;-73
2023/11/13 01:56:12;;;;;;;3.30;1.38;;;10.00;99.90;;;;;;5094966;28;20189;-73
2023/11/13 01:58:42;;;;;;;4.75;1.00;;;9.90;99.90;;;;;;5094667;28;20728;-73
2023/11/13 02:01:09;;;;;;;2.65;1.00;;;9.90;99.90;;;;;;5095198;28;20526;-73
2023/11/13 02:03:38;;;;;;;2.80;1.13;;;10.00;99.90;;;;;;5094801;28;20228;-73
2023/11/13 02:06:08;;;;;;;5.75;1.17;;;9.90;99.90;;;;;;5094465;28;20246;-73
2023/11/13 02:08:35;;;;;;;2.35;0.77;;;9.90;99.90;;;;;;5094672;28;20193;-73
2023/11/13 02:11:06;;;;;;;6.57;0.90;;;9.90;99.90;;;;;;5094109;28;20227;-74
2023/11/13 02:13:38;;;;;;;4.05;1.20;;;9.90;99.90;;;;;;5094852;28;20549;-73
2023/11/13 02:16:06;;;;;;;4.18;1.40;;;10.00;99.90;;;;;;5094722;28;20219;-73
2023/11/13 02:18:36;;;;;;;2.28;1.15;;;10.00;99.90;;;;;;5093661;28;20200;-73
2023/11/13 02:21:03;;;;;;;1.90;0.80;;;9.90;99.90;;;;;;5094247;28;20256;-73
2023/11/13 02:23:32;;;;;;;3.28;1.05;;;9.90;99.90;;;;;;5094173;28;20652;-74
2023/11/13 02:26:10;;;;;;;1.77;0.70;;;9.90;99.90;;;;;;5094673;28;20189;-73
2023/11/13 02:28:38;;;;;;;2.75;1.13;;;9.90;99.90;;;;;;5094170;28;20628;-74
2023/11/13 02:31:05;;;;;;;2.00;0.98;;;9.90;99.90;;;;;;5094337;28;20193;-73
2023/11/13 02:33:35;;;;;;;2.40;1.48;;;9.90;99.90;;;;;;5094155;28;20209;-74
2023/11/13 02:36:04;;;;;;;2.90;0.90;;;9.90;99.90;;;;;;5094093;28;20254;-74
2023/11/13 02:38:33;;;;;;;2.00;1.00;;;9.80;99.90;;;;;;5094268;28;20190;-73
2023/11/13 02:41:00;;;;;;;2.67;0.90;;;9.80;99.90;;;;;;5094214;28;20193;-73
2023/11/13 02:43:30;;;;;;;1.77;0.68;;;9.80;99.90;;;;;;5093803;28;20647;-74
2023/11/13 02:45:59;;;;;;;2.70;0.85;;;9.80;99.90;;;;;;5094168;28;20178;-73
2023/11/13 02:48:29;;;;;;;2.40;0.70;;;9.80;99.90;;;;;;5093658;28;20662;-74
2023/11/13 02:50:58;;;;;;;2.03;0.93;;;9.70;99.90;;;;;;5093789;28;20177;-73
2023/11/13 02:53:25;;;;;;;2.80;1.20;;;9.80;99.90;;;;;;5093921;28;20305;-74
2023/11/13 02:55:53;;;;;;;2.17;0.70;;;9.70;99.90;;;;;;5093709;28;20285;-73
2023/11/13 02:58:21;;;;;;;2.10;0.85;;;9.70;99.90;;;;;;5094102;28;20189;-74
2023/11/13 03:00:48;;;;;;;1.80;0.60;;;9.80;99.90;;;;;;5093982;28;20238;-74
2023/11/13 03:03:18;;;;;;;2.00;1.00;;;9.80;99.90;;;;;;5093824;28;20193;-74
2023/11/13 03:05:47;;;;;;;2.15;0.90;;;9.80;99.90;;;;;;5094073;28;20182;-74
2023/11/13 03:08:20;;;;;;;2.75;1.08;;;9.90;99.90;;;;;;5093533;28;20226;-74
2023/11/13 03:10:47;;;;;;;1.98;0.90;;;10.00;99.90;;;;;;5093962;28;20284;-74
2023/11/13 03:13:16;;;;;;;3.85;1.05;;;10.10;99.90;;;;;;5093469;28;20213;-74
2023/11/13 03:15:50;;;;;;;1.90;0.75;;;10.10;99.90;;;;;;5093908;28;20190;-74
2023/11/13 03:18:18;;;;;;;6.22;1.20;;;10.20;99.90;;;;;;5093707;28;20185;-74
2023/11/13 03:20:50;;;;;;;4.68;1.25;;;10.20;99.90;;;;;;5093378;28;20225;-74
2023/11/13 03:23:23;;;;;;;3.47;1.50;;;10.30;99.90;;;;;;5093456;28;20182;-74
2023/11/13 03:25:52;;;;;;;7.05;2.30;;;10.30;99.90;;;;;;5093841;28;20595;-74
2023/11/13 03:28:21;;;;;;;3.35;1.05;;;10.40;99.90;;;;;;5093751;28;20585;-73
2023/11/13 03:30:50;;;;;;;4.25;1.10;;;10.40;99.90;;;;;;5097145;28;20250;-74
2023/11/13 03:33:20;;;;;;;2.40;1.10;;;10.40;99.90;;;;;;5097805;28;20213;-74
2023/11/13 03:35:49;;;;;;;3.20;1.08;;;10.50;99.90;;;;;;5097422;28;20226;-74
2023/11/13 03:38:22;;;;;;;5.55;1.25;;;10.60;99.90;;;;;;5097741;28;20604;-74
2023/11/13 03:41:03;;;;;;;3.00;1.10;;;10.60;99.70;;;;;;5097749;28;20184;-74
2023/11/13 03:43:35;;;;;;;6.03;1.67;;;10.70;99.20;;;;;;5097638;28;20181;-74
2023/11/13 03:46:04;;;;;;;3.22;1.30;;;10.70;99.00;;;;;;5097261;28;20265;-74
2023/11/13 03:48:31;;;;;;;3.00;1.40;;;10.80;98.70;;;;;;5097044;28;20733;-74
2023/11/13 03:51:00;;;;;;;4.15;1.40;;;10.80;98.30;;;;;;5097602;28;20596;-74
2023/11/13 03:53:28;;;;;;;4.43;1.20;;;10.90;98.10;;;;;;5097365;28;20242;-74
2023/11/13 03:55:56;;;;;;;4.28;1.15;;;10.90;97.60;;;;;;5097341;28;20220;-74
2023/11/13 03:58:26;;;;;;;4.68;1.70;;;11.00;97.50;;;;;;5097308;28;20236;-74
2023/11/13 04:00:55;;;;;;;4.85;1.23;;;11.00;97.10;;;;;;5097349;28;20226;-74
2023/11/13 04:03:25;;;;;;;5.00;1.55;;;11.00;96.90;;;;;;5096771;28;20651;-74
2023/11/13 04:05:54;;;;;;;2.77;1.13;;;11.10;96.60;;;;;;5097133;28;20186;-74
2023/11/13 04:08:24;;;;;;;4.70;1.23;;;11.10;96.50;;;;;;5096666;28;20432;-75
2023/11/13 04:10:55;;;;;;;4.38;1.27;;;11.00;96.30;;;;;;5097398;28;20182;-74
2023/11/13 04:13:25;;;;;;;4.20;1.40;;;11.00;96.40;;;;;;5097257;28;20201;-74
2023/11/13 04:15:53;;;;;;;5.80;1.70;;;11.10;96.00;;;;;;5096986;28;20193;-74
2023/11/13 04:18:23;;;;;;;8.25;1.70;;;11.10;95.80;;;;;;5096790;28;20836;-74
2023/11/13 04:20:55;;;;;;;7.97;3.00;;;11.10;95.70;;;;;;5096593;28;20229;-74
2023/11/13 04:23:27;;;;;;;5.10;1.30;;;11.10;95.00;;;;;;5096481;28;20230;-74
2023/11/13 04:25:56;;;;;;;3.55;1.50;;;11.20;94.80;;;;;;5096501;28;20173;-74
2023/11/13 04:28:32;;;;;;;4.83;1.40;;;11.20;94.10;;;;;;5096697;28;20637;-74
2023/11/13 04:31:02;;;;;;;5.50;1.30;;;11.30;94.10;;;;;;5096405;28;20431;-74
2023/11/13 04:33:31;;;;;;;3.63;1.20;;;11.30;93.90;;;;;;5096037;28;20479;-74
2023/11/13 04:36:01;;;;;;;6.82;1.30;;;11.30;94.00;;;;;;5096223;28;20197;-74
2023/11/13 04:38:29;;;;;;;2.73;1.23;;;11.30;94.00;;;;;;5096612;28;20243;-74
2023/11/13 04:40:58;;;;;;;4.85;1.40;;;11.30;93.50;;;;;;5095993;28;20505;-74
2023/11/13 04:43:27;;;;;;;5.47;2.20;;;11.30;93.40;;;;;;5096429;28;20233;-74
2023/11/13 04:45:55;;;;;;;5.40;1.40;;;11.40;93.00;;;;;;5096170;28;20185;-74
2023/11/13 04:48:25;;;;;;;3.17;1.07;;;11.40;93.00;;;;;;5096174;28;20225;-74
2023/11/13 04:50:55;;;;;;;3.70;0.90;;;11.40;92.60;;;;;;5096252;28;20902;-74
2023/11/13 04:53:22;;;;;;;4.43;1.30;;;11.40;92.20;;;;;;5096517;28;20472;-74
2023/11/13 04:55:51;;;;;;;2.42;1.02;;;11.40;91.90;;;;;;5096156;28;20467;-74
2023/11/13 04:58:24;;;;;;;4.27;1.57;;;11.40;92.00;;;;;;5096137;28;20194;-73
2023/11/13 05:00:51;;;;;;;8.45;1.75;;;11.40;91.80;;;;;;5096094;28;20424;-74
2023/11/13 05:03:25;;;;;;;4.47;1.30;;;11.50;91.60;;;;;;5095590;28;20663;-74
2023/11/13 05:05:54;;;;;;;2.35;1.00;;;11.50;91.40;;;;;;5096147;28;20181;-74
2023/11/13 05:08:37;;;;;;;9.10;1.15;;;11.50;91.40;;;;;;5095975;28;20594;-74
2023/11/13 05:11:08;;;;;;;7.47;1.30;;;11.40;91.30;;;;;;5095607;28;20181;-73
2023/11/13 05:13:38;;;;;;;5.43;1.85;;;11.50;91.00;;;;;;5095683;28;20223;-74
2023/11/13 05:16:06;;;;;;;3.63;1.20;;;11.50;91.00;;;;;;5095503;28;20194;-74
2023/11/13 05:18:34;;;;;;;2.78;1.13;;;11.50;91.00;;;;;;5095334;28;20197;-74
2023/11/13 05:21:04;;;;;;;4.90;1.35;;;11.50;90.70;;;;;;5095468;28;20312;-74
2023/11/13 05:23:38;;;;;;;3.65;1.20;;;11.60;90.60;;;;;;5095197;28;20193;-73
2023/11/13 05:26:08;;;;;;;4.43;1.17;;;11.60;90.30;;;;;;5095272;28;20178;-73
2023/11/13 05:28:38;;;;;;;3.47;1.27;;;11.60;90.30;;;;;;5095230;28;20481;-74
2023/11/13 05:31:06;;;;;;;2.55;1.10;;;11.60;90.20;;;;;;5095523;28;20443;-73
2023/11/13 05:33:34;;;;;;;4.87;1.47;;;11.60;90.20;;;;;;5095014;28;20609;-73
2023/11/13 05:36:03;;;;;;;3.40;1.27;;;11.60;90.10;;;;;;5095366;28;20431;-74
2023/11/13 05:38:32;;;;;;;3.17;1.40;;;11.60;90.20;;;;;;5095396;28;20527;-73
2023/11/13 05:41:00;;;;;;;4.20;1.23;;;11.60;90.40;;;;;;5095308;28;20435;-74
2023/11/13 05:43:27;;;;;;;3.67;1.60;;;11.60;90.40;;;;;;5095453;28;20497;-74
2023/11/13 05:45:56;;;;;;;3.22;1.65;;;11.60;90.50;;;;;;5094936;28;20640;-74
2023/11/13 05:48:27;;;;;;;3.97;1.70;;;11.60;90.60;;;;;;5094974;28;20224;-73
2023/11/13 05:50:55;;;;;;;2.38;0.93;;;11.60;90.80;;;;;;5094942;28;20477;-74
2023/11/13 05:53:24;;;;;;;5.25;1.35;;;11.60;90.50;;;;;;5094142;28;20543;-74
2023/11/13 05:55:51;;;;;;;7.87;1.60;;;11.60;90.50;;;;;;5095273;28;20190;-73
2023/11/13 05:58:21;;;;;;;6.20;1.30;;;11.60;90.60;;;;;;5094535;28;20829;-74
2023/11/13 06:00:50;;;;;;;3.33;1.40;;;11.60;90.60;;;;;;5094274;28;20431;-74
2023/11/13 06:03:23;;;;;;;3.15;1.40;;;11.60;90.50;;;;;;5093881;28;20197;-74
2023/11/13 06:05:57;;;;;;;6.00;1.00;;;11.60;90.20;;;;;;5094358;28;20219;-74
2023/11/13 06:08:29;;;;;;;6.90;1.47;;;11.60;90.00;;;;;;5094672;28;20480;-74
2023/11/13 06:10:57;;;;;;;3.47;1.60;;;11.60;89.40;;;;;;5094315;28;20499;-74
2023/11/13 06:13:25;;;;;;;4.47;1.33;;;11.70;89.90;;;;;;5093835;28;20476;-74
2023/11/13 06:15:52;;;;;;;4.60;0.90;;;11.70;87.70;;;;;;5094393;28;20435;-74
2023/11/13 06:18:20;;;;;;;3.30;0.83;;;11.70;86.30;;;;;;5094219;28;20475;-74
2023/11/13 06:20:48;;;;;;;5.10;0.83;;;11.80;85.70;;;;;;5093707;28;20923;-74
2023/11/13 06:23:16;;;;;;;2.63;0.70;;;11.80;85.00;;;;;;5093823;28;20436;-74
2023/11/13 06:25:43;;;;;;;2.20;0.70;;;11.80;83.80;;;;;;5094079;28;20481;-74
2023/11/13 06:28:10;;;;;;;2.10;0.80;;;11.90;83.70;;;;;;5093799;28;20435;-74
2023/11/13 06:30:38;;;;;;;1.77;0.60;;;11.90;82.40;;;;;;5091797;28;20476;-74
2023/11/13 06:33:05;;;;;;;2.80;0.70;;;11.90;81.40;;;;;;5093313;28;20508;-74
2023/11/13 06:35:33;;;;;;;2.50;0.93;;;11.90;80.90;;;;;;5093457;28;20431;-74
2023/11/13 06:38:00;;;;;;;2.57;0.73;;;12.00;80.30;;;;;;5093455;28;20466;-74
2023/11/13 06:40:28;;;;;;;5.27;0.90;;;12.00;79.80;;;;;;5093304;28;20431;-75
2023/11/13 06:42:55;;;;;;;2.30;0.70;;;12.10;79.20;;;;;;5093317;28;20529;-74
2023/11/13 06:45:22;;;;;;;1.90;0.83;;;12.10;79.00;;;;;;5085608;28;20431;-74
2023/11/13 06:47:50;;;;;;;1.87;0.60;;;12.10;79.00;;;;;;5091572;28;20473;-75
2023/11/13 06:50:18;;;;;;;1.87;0.60;;;12.10;79.50;;;;;;5093090;28;20478;-74
2023/11/13 06:52:47;;;;;;;2.00;0.70;;;12.00;80.30;;;;;;5093285;28;20888;-74
2023/11/13 06:55:16;;;;;;;1.80;0.70;;;12.00;80.40;;;;;;5092682;28;20835;-74
2023/11/13 06:57:49;;;;;;;2.20;0.70;;;12.10;80.20;;;;;;5092320;28;20914;-74
2023/11/13 07:00:22;;;;;;;2.00;0.70;;;12.00;80.00;;;;;;5092510;28;21259;-74
2023/11/13 07:02:52;;;;;;;2.30;1.20;;;12.00;80.40;;;;;;5092025;28;20424;-74
2023/11/13 07:05:23;;;;;;;2.10;0.60;;;12.00;80.60;;;;;;5092509;28;20443;-73
2023/11/13 07:07:55;;;;;;;2.20;1.23;;;12.00;80.50;;;;;;5092466;28;20427;-74
2023/11/13 07:10:22;;;;;;;1.70;0.60;;;12.00;80.30;;;;;;5092640;28;20496;-74
2023/11/13 07:12:51;;;;;;;1.80;0.70;;;12.10;80.00;;;;;;5088832;28;20921;-74
2023/11/13 07:15:19;;;;;;;1.93;0.70;;;12.10;80.20;;;;;;5092368;28;20977;-74
2023/11/13 07:17:46;;;;;;;1.80;0.70;;;12.10;80.30;;;;;;5092124;28;20930;-75
2023/11/13 07:20:13;;;;;;;1.90;0.67;;;12.10;80.90;;;;;;5091256;28;20614;-74
2023/11/13 07:22:40;;;;;;;1.67;0.57;;;12.10;81.80;;;;;;5092120;28;20439;-74
2023/11/13 07:25:10;;;;;;;2.47;0.90;;;12.10;82.50;;;;;;5091939;28;20475;-74
2023/11/13 07:27:41;;;;;;;1.80;0.70;;;12.10;83.40;;;;;;5091336;28;20505;-73
2023/11/13 07:30:11;;;;;;;2.20;0.57;;;12.10;85.00;;;;;;5092063;28;20178;-73
2023/11/13 07:32:46;;;;;;;1.67;0.60;;;12.10;86.00;;;;;;5091823;28;20824;-74
2023/11/13 07:35:16;;;;;;;1.80;0.60;;;12.10;86.70;;;;;;5090784;28;20471;-73
2023/11/13 07:37:44;;;;;;;1.90;0.80;;;12.00;87.90;;;;;;5092475;28;20430;-73
2023/11/13 07:40:14;;;;;;;1.90;0.70;;;12.00;88.70;;;;;;5092568;28;20439;-74
2023/11/13 07:42:43;;;;;;;3.60;0.73;;;12.00;89.50;;;;;;5092424;28;20463;-74
2023/11/13 07:45:12;;;;;;;2.13;0.90;;;12.00;90.20;;;;;;5092587;28;20859;-74
2023/11/13 07:47:40;;;;;;;1.80;0.70;;;12.00;90.50;;;;;;5092835;28;20490;-74
2023/11/13 07:50:11;;;;;;;2.20;1.10;;;11.90;90.90;;;;;;5092576;28;20450;-74
2023/11/13 07:52:41;;;;;;;2.10;0.80;;;11.90;91.00;;;;;;5092698;28;20981;-74
2023/11/13 07:55:12;;;;;;;2.40;1.00;;;11.90;91.20;;;;;;5092601;28;20479;-73
2023/11/13 07:57:40;;;;;;;2.43;1.20;;;11.90;92.00;;;;;;5092975;28;20499;-74
2023/11/13 08:00:09;;;;;;;3.97;1.90;;;11.90;91.80;;;;;;5092562;28;20910;-74
2023/11/13 08:02:40;;;;;;;3.33;1.65;;;11.90;91.80;;;;;;5092957;28;20436;-74
2023/11/13 08:05:10;;;;;;;2.80;1.50;;;11.90;91.90;;;;;;5092880;28;20181;-74
2023/11/13 08:07:42;;;;;;;3.53;2.07;;;11.90;92.50;;;;;;5093452;28;20443;-74
2023/11/13 08:10:12;;;;;;;4.20;1.80;;;11.90;92.70;;;;;;5092813;28;20492;-74
2023/11/13 08:12:42;;;;;;;2.83;1.40;;;11.90;92.70;;;;;;5092640;28;20182;-74
2023/11/13 08:15:13;;;;;;;2.50;1.57;;;11.90;92.90;;;;;;5092885;28;20566;-74
2023/11/13 08:17:43;;;;;;;3.20;1.70;;;11.90;93.10;;;;;;5096377;28;20416;-74
2023/11/13 08:20:13;;;;;;;3.97;1.77;;;11.80;93.10;;;;;;5095963;28;20459;-74
2023/11/13 08:22:41;;;;;;;3.27;1.80;;;11.80;93.30;;;;;;5096327;28;20811;-74
2023/11/13 08:25:11;;;;;;;6.77;2.20;;;11.80;93.40;;;;;;5095908;28;20431;-74
2023/11/13 08:27:40;;;;;;;5.43;3.30;;;11.80;93.70;;;;;;5096197;28;20790;-75
2023/11/13 08:30:08;;;;;;;9.23;3.77;;;11.80;93.90;;;;;;5095822;28;20524;-74
2023/11/13 08:32:35;;;;;;;7.37;4.60;;;11.80;94.20;;;;;;5096095;28;20500;-74
2023/11/13 08:35:05;;;;;;;7.97;3.63;;;11.80;94.40;;;;;;5095608;28;20957;-74
2023/11/13 08:37:32;;;;;;;5.13;3.40;;;11.80;94.90;;;;;;5095711;28;20942;-74
2023/11/13 08:40:01;;;;;;;4.10;2.33;;;11.80;94.70;;;;;;5095985;28;20470;-74
2023/11/13 08:42:28;;;;;;;4.23;2.70;;;11.70;94.90;;;;;;5095914;28;20516;-74
2023/11/13 08:44:56;;;;;;;2.90;1.37;;;11.70;95.00;;;;;;5095651;28;20934;-74
2023/11/13 08:47:23;;;;;;;2.70;1.60;;;11.70;95.10;;;;;;5095484;28;20918;-74
2023/11/13 08:49:50;;;;;;;5.60;1.83;;;11.70;95.40;;;;;;5095708;28;20197;-74
2023/11/13 08:52:20;;;;;;;3.33;2.30;;;11.70;95.50;;;;;;5095479;28;20651;-74
2023/11/13 08:54:47;;;;;;;3.80;2.23;;;11.60;95.90;;;;;;5095296;28;20471;-74
2023/11/13 08:57:14;;;;;;;5.87;3.53;;;11.70;96.10;;;;;;5095614;28;20484;-74
2023/11/13 08:59:41;;;;;;;6.80;4.67;;;11.60;96.40;;;;;;5095550;28;20445;-74
2023/11/13 09:02:08;;;;;;;7.57;4.77;;;11.60;96.70;;;;;;5095463;28;20432;-74
2023/11/13 09:04:36;;;;;;;5.03;3.60;;;11.60;97.10;;;;;;5095559;28;20497;-75
2023/11/13 09:07:07;;;;;;;4.23;2.23;;;11.70;96.90;;;;;;5095485;28;20193;-74
2023/11/13 09:09:36;;;;;;;4.82;2.25;;;11.60;96.70;;;;;;5095132;28;20454;-74
2023/11/13 09:12:04;;;;;;;2.97;1.60;;;11.60;96.70;;;;;;5095389;28;20236;-74
2023/11/13 09:14:32;;;;;;;3.80;2.03;;;11.60;97.20;;;;;;5095217;28;20266;-74
2023/11/13 09:17:09;;;;;;;3.60;2.00;;;11.50;97.40;;;;;;5095266;28;20516;-74
2023/11/13 09:19:38;;;;;;;3.47;2.10;;;11.50;97.50;;;;;;5094942;28;20506;-74
2023/11/13 09:22:09;;;;;;;2.78;2.05;;;11.50;97.70;;;;;;5094876;28;20519;-74
2023/11/13 09:24:39;;;;;;;3.00;1.63;;;11.50;97.20;;;;;;5095232;28;20192;-74
2023/11/13 09:27:09;;;;;;;2.65;1.42;;;11.50;97.50;;;;;;5093827;28;20590;-74
2023/11/13 09:29:38;;;;;;;2.37;1.07;;;11.50;97.50;;;;;;5095368;28;20217;-74
2023/11/13 09:32:07;;;;;;;2.22;1.15;;;11.50;97.70;;;;;;5094696;28;20535;-74
2023/11/13 09:34:34;;;;;;;3.22;1.83;;;11.40;98.00;;;;;;5094898;28;20304;-74
2023/11/13 09:37:04;;;;;;;2.70;1.67;;;11.40;98.20;;;;;;5094814;28;20194;-74
2023/11/13 09:39:32;;;;;;;3.30;1.80;;;11.50;98.00;;;;;;5094537;28;20427;-74
2023/11/13 09:42:04;;;;;;;7.35;3.10;;;11.50;97.90;;;;;;5094707;28;20247;-74
2023/11/13 09:44:32;;;;;;;3.17;1.80;;;11.50;97.80;;;;;;5094861;28;20182;-74
2023/11/13 09:47:00;;;;;;;4.83;2.03;;;11.50;97.90;;;;;;5094744;28;20459;-74
2023/11/13 09:49:29;;;;;;;3.47;1.90;;;11.60;97.80;;;;;;5094199;28;20514;-74
2023/11/13 09:51:57;;;;;;;2.50;1.57;;;11.60;97.90;;;;;;5094229;28;20271;-74
2023/11/13 09:54:25;;;;;;;4.63;2.23;;;11.70;97.90;;;;;;5094211;28;20481;-74
2023/11/13 09:56:56;;;;;;;3.47;2.17;;;11.80;97.90;;;;;;5094415;28;20436;-74
2023/11/13 09:59:25;;;;;;;5.20;3.10;;;11.80;98.00;;;;;;5094242;28;20420;-74
2023/11/13 10:01:53;;;;;;;7.13;3.30;;;11.90;97.90;;;;;;5094472;28;20439;-74
2023/11/13 10:04:20;;;;;;;4.85;3.92;;;11.90;97.10;;;;;;5093991;28;20443;-74
2023/11/13 10:06:52;;;;;;;4.70;3.77;;;11.90;97.00;;;;;;5094329;28;20193;-74
2023/11/13 10:09:22;;;;;;;3.97;2.13;;;11.90;97.10;;;;;;5094617;28;20790;-74
2023/11/13 10:11:50;;;;;;;3.30;1.80;;;11.90;97.10;;;;;;5094204;28;20451;-75
2023/11/13 10:14:17;;;;;;;3.33;1.97;;;11.90;97.40;;;;;;5094117;28;20840;-75
2023/11/13 10:16:56;;;;;;;3.70;2.23;;;11.80;97.70;;;;;;5093833;28;20424;-74
2023/11/13 10:19:23;;;;;;;2.53;1.30;;;11.80;97.90;;;;;;5094160;28;20427;-74
2023/11/13 10:21:51;;;;;;;3.50;1.87;;;11.90;97.70;;;;;;5093609;28;20213;-75
2023/11/13 10:24:21;;;;;;;3.37;2.07;;;11.80;98.00;;;;;;5093893;28;20431;-74
2023/11/13 10:26:52;;;;;;;2.43;1.50;;;11.90;98.30;;;;;;5093972;28;20495;-74
2023/11/13 10:29:20;;;;;;;3.00;1.37;;;12.00;98.30;;;;;;5094124;28;20835;-74
2023/11/13 10:31:48;;;;;;;2.40;1.40;;;12.00;98.20;;;;;;5093554;28;20910;-75
2023/11/13 10:34:17;;;;;;;3.50;1.77;;;12.00;98.30;;;;;;5093914;28;20435;-74
2023/11/13 10:36:44;;;;;;;3.07;1.60;;;12.10;98.30;;;;;;5093224;28;20985;-74
2023/11/13 10:39:15;;;;;;;2.80;1.50;;;12.20;98.30;;;;;;5093036;28;20539;-75
2023/11/13 10:41:51;;;;;;;2.30;1.07;;;12.20;98.30;;;;;;5093703;28;20477;-74
2023/11/13 10:44:27;;;;;;;2.53;1.30;;;12.20;98.20;;;;;;5093661;28;20519;-74
2023/11/13 10:46:54;;;;;;;8.93;1.60;;;12.20;98.20;;;;;;5093485;28;20776;-74
2023/11/13 10:49:22;;;;;;;4.33;1.97;;;12.30;98.40;;;;;;5093635;28;20529;-75
2023/11/13 10:51:53;;;;;;;3.37;1.77;;;12.30;98.40;;;;;;5093114;28;20439;-75
2023/11/13 10:54:23;;;;;;;2.87;1.57;;;12.40;97.90;;;;;;5093443;28;20448;-74
2023/11/13 10:56:51;;;;;;;2.77;1.20;;;12.50;97.90;;;;;;5093301;28;20463;-74
2023/11/13 10:59:18;;;;;;;2.97;1.13;;;12.50;97.30;;;;;;5093122;28;20512;-74
2023/11/13 11:01:51;;;;;;;4.20;1.30;;;12.60;97.50;;;;;;5093394;28;20431;-75
2023/11/13 11:04:21;;;;;;;2.83;1.53;;;12.70;96.60;;;;;;5093541;28;20443;-75
2023/11/13 11:06:51;;;;;;;4.60;1.17;;;12.80;96.60;;;;;;5093377;28;20431;-75
2023/11/13 11:09:20;;;;;;;3.60;1.83;;;12.90;96.20;;;;;;5093202;28;20428;-74
2023/11/13 11:11:48;;;;;;;2.87;1.40;;;13.00;95.90;;;;;;5093150;28;20832;-74
2023/11/13 11:14:21;;;;;;;4.37;1.10;;;13.10;95.40;;;;;;5092880;28;20423;-74
2023/11/13 11:16:57;;;;;;;4.77;1.60;;;13.20;95.40;;;;;;5092818;28;20550;-75
2023/11/13 11:19:32;;;;;;;4.47;1.10;;;13.30;94.80;;;;;;5093297;28;20772;-75
2023/11/13 11:22:09;;;;;;;5.40;1.13;;;13.40;94.10;;;;;;5092612;28;20524;-75
2023/11/13 11:24:55;;;;;;;2.50;1.00;;;13.50;93.40;;;;;;5092865;28;20429;-74
2023/11/13 11:27:39;;;;;;;2.93;1.13;;;13.60;93.20;;;;;;5093074;28;20427;-74
2023/11/13 11:30:35;;;;;;;4.40;1.77;;;13.70;92.40;;;;;;5093425;28;20447;-74
2023/11/13 11:33:05;;;;;;;4.97;1.40;;;13.80;92.60;;;;;;5088414;28;20793;-74
2023/11/13 11:35:40;;;;;;;2.70;1.50;;;13.80;92.20;;;;;;5092657;28;20473;-74
2023/11/13 11:38:22;;;;;;;3.40;1.90;;;13.80;91.90;;;;;;5093047;28;20427;-73
2023/11/13 11:40:49;;;;;;;2.67;1.10;;;13.90;91.70;;;;;;5092707;28;20419;-75
2023/11/13 11:43:18;;;;;;;3.27;1.20;;;13.90;91.60;;;;;;5093078;28;20432;-75
2023/11/13 11:45:49;;;;;;;2.97;1.37;;;13.90;91.40;;;;;;5092636;28;20436;-75
2023/11/13 11:48:18;;;;;;;3.33;1.47;;;13.90;91.10;;;;;;5092902;28;20489;-75
2023/11/13 11:50:45;;;;;;;3.93;1.33;;;14.00;90.50;;;;;;5094316;28;21004;-75
2023/11/13 11:53:16;;;;;;;2.80;1.30;;;14.00;90.90;;;;;;5096869;28;20438;-76
2023/11/13 11:55:45;;;;;;;2.43;1.20;;;14.00;90.60;;;;;;5096708;28;20550;-76
2023/11/13 11:58:14;;;;;;;4.57;1.47;;;14.00;90.70;;;;;;5096346;28;20431;-75
2023/11/13 12:00:44;;;;;;;2.50;1.40;;;14.00;90.90;;;;;;5096729;28;20796;-75
2023/11/13 12:03:11;;;;;;;2.43;0.97;;;14.00;91.20;;;;;;5096825;28;20427;-75
2023/11/13 12:05:38;;;;;;;2.30;1.20;;;14.00;91.10;;;;;;5096631;28;20435;-75
2023/11/13 12:08:07;;;;;;;3.30;1.30;;;14.00;90.90;;;;;;5096316;28;20504;-75
2023/11/13 12:10:35;;;;;;;3.00;1.47;;;14.00;90.90;;;;;;5096499;28;20427;-75
2023/11/13 12:13:06;;;;;;;3.53;1.73;;;14.10;91.10;;;;;;5096138;28;20518;-75
2023/11/13 12:15:33;;;;;;;3.00;1.30;;;14.10;90.50;;;;;;5096446;28;20459;-75
2023/11/13 12:18:02;;;;;;;4.07;1.50;;;14.10;90.20;;;;;;5096226;28;20511;-75
2023/11/13 12:20:30;;;;;;;3.03;1.33;;;14.10;90.40;;;;;;5095878;28;20475;-75
2023/11/13 12:22:57;;;;;;;3.90;1.33;;;14.10;90.40;;;;;;5096479;28;20435;-75
2023/11/13 12:25:25;;;;;;;3.33;1.20;;;14.10;90.50;;;;;;5095887;28;20443;-75
2023/11/13 12:27:55;;;;;;;3.43;1.30;;;14.10;90.70;;;;;;5096173;28;20442;-75
2023/11/13 12:30:26;;;;;;;2.43;1.30;;;14.10;90.70;;;;;;5096218;28;20434;-75
2023/11/13 12:32:54;;;;;;;2.70;1.00;;;14.10;90.50;;;;;;5096105;28;20428;-75
2023/11/13 12:35:22;;;;;;;4.17;1.50;;;14.10;90.30;;;;;;5095657;28;20471;-75
2023/11/13 12:37:50;;;;;;;3.20;1.33;;;14.10;90.60;;;;;;5095804;28;20492;-75
2023/11/13 12:40:18;;;;;;;2.87;1.13;;;14.10;90.50;;;;;;5096208;28;20464;-75
2023/11/13 12:42:45;;;;;;;3.43;1.10;;;14.10;90.20;;;;;;5095704;28;20522;-75
2023/11/13 12:45:13;;;;;;;3.37;1.60;;;14.00;90.50;;;;;;5095663;28;20436;-75
2023/11/13 12:47:46;;;;;;;2.77;1.20;;;14.00;90.90;;;;;;5095791;28;20481;-75
2023/11/13 12:50:14;;;;;;;4.37;1.57;;;14.00;91.10;;;;;;5095498;28;20439;-75
2023/11/13 12:52:43;;;;;;;4.20;1.83;;;14.00;91.30;;;;;;5095780;28;20836;-75
2023/11/13 12:55:13;;;;;;;6.30;2.40;;;13.90;91.50;;;;;;5095664;28;20463;-75
2023/11/13 12:57:43;;;;;;;2.87;1.53;;;14.00;91.50;;;;;;5095667;28;20439;-75
2023/11/13 13:00:15;;;;;;;6.20;1.90;;;14.00;91.50;;;;;;5095436;28;20557;-76